Aeroporto :







RITROVATECI SU...

 
LOGIN :

Iscrizione | Disclaimer

   EN    FR    IT 

 









Sommario :    VFR   VFR Marginale   IFR   IFR Intensivo   IFR Molto Intensivo
Visibilità : 
Base nubi : 
>= 8 km
>= 3000ft
5 / 8 km
1000 / 3000 ft
1500m / 5 km
500 / 1000 ft
800 / 1500m
200 / 500 ft
< 800m
< 200 ft
Simboli :   Temporali  Nebbia  Neve Forte  Precipitazioni Forti  Vento > 20 kt






- Altitudine del aeroporto : 2042 ft
- Codice IATA : BRM


SVBM - Barquisimeto International

ULTIMO METAR :
  • 021202Z AUTO 13003KT NCD 23/21 Q1016

METARs OBSOLETI :
  • 021100Z 00000KT 9999 FEW016 22/20 Q1016
  • 021002Z AUTO 15004KT NCD 28/22 Q1015

TAF TAF SVBM
Valido dal 02 a 00 ore il 03 a 00 ore UTC


012023Z 0200/0300 12007KT 6000 VCBRDZ FEW013CB BKN060 TX32/0218Z TN22/0308Z
BECMG 0209/0213 09004KT 4000 BRDZ BKN013CB
FIR SVZM / Sudamerica



MetMap, La meteo Aeronautica in un colpo d'occhio ! - Copyright ORBIFLY Dicembre 2007 - Disclaimer

ORBIFLY MET'MAP TEAM :

Programmazione e sviluppo : Alexandra Zaïnal
Concezione : Baudouin d'Aumeries
Aiuto per la programmazione : Marc-Olivier Méhu
Supporto tecnico e logistico : Manuel Goepfert
Aiuto per la traduzione : Arnaldo La Scala

Contatto : metmap@orbifly.com




FONTI E CREDITI :

   NOAA